Batumi International Airport
UGSB : rendu visible

Aérodrome :











RETROUVEZ-NOUS SUR...

 
LOGIN :

S'inscrire | Disclaimer

   EN    FR    IT 

 









Légende :    VFR   VFR Marginal   IFR   IFR Intensif   IFR Très Intensif
Visi : 
Plafond : 
>= 8 km
>= 3000ft
5 à 8 km
1000 à 3000 ft
1500m à 5 km
500 à 1000 ft
800 à 1500m
200 à 500 ft
< 800m
< 200 ft
Symboles :   Orages  Brouillard  Fortes neiges  Fortes précipitations  Vent > 20 kt







- Altitude de l'aérodrome : 105 ft
- Code IATA : BUS


UGSB - Batumi International

DERNIER METAR :
  • 021600Z 00000KT 9999 BKN023 09/06 Q1021 R13/19//60 NOSIG

METARs EXPIRÉS :
  • 021530Z 00000KT 9999 BKN023 09/06 Q1021 R13/19//60 NOSIG
  • 021500Z 00000KT 9999 FEW020 SCT030 09/06 Q1021 R13/19//60 NOSIG
  • 021430Z 00000KT 9999 FEW022 BKN030 09/06 Q1021 R13/19//60 NOSIG
  • 021400Z 00000KT 9999 -RA FEW022 BKN030 09/06 Q1021 R13/19//60 NOSIG
  • 021330Z 00000KT 9999 FEW022 SCT030 09/05 Q1021 R13/19//60 NOSIG

TAF TAF UGSB
Valide du 02 à 12h jusqu'au 03 à 12h UTC


021100Z 0212/0312 VRB03KT 9999 SCT015 BKN030 TX12/0311Z TN07/0301Z
PROB40
TEMPO 0214/0220 2500 BR OVC003
BECMG 0220/0222 13010KT
TEMPO 0308/0312 VRB03KT
FIR UGGG / Asie



MET'MAP, la Météo Aéronautique d'un coup d'oeil ! - Copyright ORBIFLY Décembre 2007 - Disclaimer

ORBIFLY MET'MAP TEAM :

Programmation & Développement : Alexandra Zaïnal
Conception & Développement : Baudouin d'Aumeries
Co-Programmation & Développement : Marc-Olivier Méhu
Soutien technique & logistique : Manuel Goepfert

Contact : metmap@orbifly.com




SOURCES & CREDITS :

   NOAA       Earth
Advisory